createdAt,value
2022-10-15T00:00:36.177Z,81.86
2022-10-15T00:01:41.751Z,82.22
2022-10-15T00:02:45.678Z,82.26
2022-10-15T00:03:49.686Z,82.22
2022-10-15T00:04:53.652Z,82.57
2022-10-15T00:05:57.515Z,82.57
2022-10-15T00:07:02.734Z,82.73
2022-10-15T00:08:08.353Z,82.78
2022-10-15T00:11:22.325Z,83.34
2022-10-15T00:14:07.647Z,83.07
2022-10-15T00:15:12.072Z,83.37
2022-10-15T00:16:20.701Z,83.61
2022-10-15T00:17:24.940Z,83.39
2022-10-15T00:18:29.362Z,83.39
2022-10-15T00:19:33.379Z,83.54
2022-10-15T00:20:40.212Z,83.09
2022-10-15T00:21:44.064Z,83.25
2022-10-15T00:22:47.948Z,83.25
2022-10-15T00:23:52.367Z,83.78
2022-10-15T00:24:56.233Z,83.78
2022-10-15T00:26:08.143Z,83.92
2022-10-15T00:27:12.090Z,83.81
2022-10-15T00:28:17.706Z,83.68
2022-10-15T00:29:21.694Z,83.85
2022-10-15T00:30:25.632Z,83.62
2022-10-15T00:31:32.629Z,83.97
2022-10-15T00:32:38.147Z,84.13
2022-10-15T00:33:43.145Z,84.04
2022-10-15T00:34:47.548Z,84.19
2022-10-15T00:36:01.609Z,84.22
2022-10-15T00:37:05.513Z,84.22
2022-10-15T00:38:09.475Z,84.38
2022-10-15T00:39:13.330Z,84.13
2022-10-15T00:40:17.406Z,84.08
2022-10-15T00:41:27.116Z,84.26
2022-10-15T00:42:32.013Z,84.25
2022-10-15T00:43:44.901Z,84.38
2022-10-15T00:44:54.490Z,84.45
2022-10-15T00:46:02.676Z,84.66
2022-10-15T00:47:25.269Z,84.52
2022-10-15T00:48:34.055Z,84.65
2022-10-15T00:49:46.480Z,84.68
2022-10-15T00:50:51.804Z,84.79
2022-10-15T00:52:04.735Z,84.79
2022-10-15T00:53:10.454Z,84.96
2022-10-15T00:54:16.155Z,84.86
2022-10-15T00:55:35.206Z,84.94
2022-10-15T00:56:42.077Z,84.73
2022-10-15T00:57:49.071Z,84.75
2022-10-15T00:58:55.834Z,84.91
2022-10-15T01:00:02.921Z,84.94
2022-10-15T01:01:06.888Z,84.90
2022-10-15T01:02:13.353Z,84.81
2022-10-15T01:03:17.277Z,84.81
2022-10-15T01:04:22.562Z,85.29
2022-10-15T01:05:27.260Z,85.38
2022-10-15T01:06:35.341Z,85.32
2022-10-15T01:07:39.238Z,85.32
2022-10-15T01:08:43.348Z,85.29
2022-10-15T01:09:47.439Z,85.24
2022-10-15T01:11:29.346Z,85.37
2022-10-15T01:12:47.865Z,85.27
2022-10-15T01:13:56.371Z,85.32
2022-10-15T01:15:18.250Z,85.32
2022-10-15T01:16:46.144Z,85.37
2022-10-15T01:17:53.000Z,85.50
2022-10-15T01:19:02.844Z,85.64
2022-10-15T01:20:29.844Z,86.06
2022-10-15T01:21:36.560Z,85.87
2022-10-15T01:22:52.167Z,85.87
2022-10-15T01:24:08.182Z,86.51
2022-10-15T01:25:40.570Z,86.50
2022-10-15T01:26:56.215Z,86.50
2022-10-15T01:28:18.256Z,86.58
2022-10-15T01:29:58.326Z,86.60
2022-10-15T01:31:05.266Z,86.60
2022-10-15T01:32:18.126Z,86.60
2022-10-15T01:33:50.461Z,86.80
2022-10-15T01:34:59.969Z,86.90
2022-10-15T01:36:09.647Z,87.03
2022-10-15T01:37:16.540Z,87.15
2022-10-15T01:38:23.420Z,87.09
2022-10-15T01:39:31.925Z,87.32
2022-10-15T01:40:38.901Z,87.47
2022-10-15T01:41:48.564Z,87.22
2022-10-15T01:42:55.415Z,87.36
2022-10-15T01:44:05.017Z,87.54
2022-10-15T01:45:11.973Z,87.53
2022-10-15T01:46:19.062Z,87.23
2022-10-15T01:47:33.806Z,87.63
2022-10-15T01:48:37.587Z,87.32
2022-10-15T01:49:44.238Z,87.60
2022-10-15T01:50:51.165Z,87.40
2022-10-15T01:51:59.767Z,87.91
2022-10-15T01:53:06.986Z,87.80
2022-10-15T01:54:15.486Z,87.84
2022-10-15T01:55:20.999Z,87.88
2022-10-15T01:56:27.072Z,88.28
2022-10-15T01:57:33.319Z,88.12
2022-10-15T01:58:40.194Z,88.20
2022-10-15T01:59:45.892Z,88.09
2022-10-15T02:00:51.783Z,88.18
2022-10-15T02:01:58.135Z,88.23
2022-10-15T02:03:04.161Z,88.13
2022-10-15T02:04:21.535Z,88.13
2022-10-15T02:05:28.402Z,88.30
2022-10-15T02:06:35.331Z,88.29
2022-10-15T02:08:00.412Z,88.67
2022-10-15T02:09:10.128Z,88.47
2022-10-15T02:10:35.171Z,88.51
2022-10-15T02:11:58.336Z,88.43
2022-10-15T02:13:38.010Z,88.63
2022-10-15T02:14:55.301Z,88.28
2022-10-15T02:16:02.158Z,88.49
2022-10-15T02:17:10.230Z,88.44
2022-10-15T02:18:18.403Z,88.52
2022-10-15T02:19:35.888Z,88.51
2022-10-15T02:21:00.297Z,88.16
2022-10-15T02:22:12.955Z,87.95
2022-10-15T02:23:27.101Z,88.07
2022-10-15T02:24:28.466Z,88.04
2022-10-15T02:25:35.861Z,87.97
2022-10-15T02:26:43.097Z,88.23
2022-10-15T02:27:49.616Z,87.96
2022-10-15T02:28:56.689Z,87.68
2022-10-15T02:30:06.577Z,87.41
2022-10-15T02:31:15.460Z,87.33
2022-10-15T02:32:22.169Z,87.09
2022-10-15T02:33:29.894Z,87.25
2022-10-15T02:34:36.150Z,87.29
2022-10-15T02:35:43.951Z,87.38
2022-10-15T02:36:56.694Z,86.98
2022-10-15T02:38:03.657Z,87.23
2022-10-15T02:39:11.137Z,87.12
2022-10-15T02:40:15.805Z,87.11
2022-10-15T02:41:19.913Z,87.14
2022-10-15T02:42:24.176Z,87.02
2022-10-15T02:43:28.379Z,87.70
2022-10-15T02:44:32.415Z,87.41
2022-10-15T02:45:38.427Z,87.02
2022-10-15T02:46:42.801Z,86.51
2022-10-15T02:47:46.743Z,86.54
2022-10-15T02:48:50.691Z,86.20
2022-10-15T02:49:54.559Z,85.74
2022-10-15T02:50:58.496Z,86.00
2022-10-15T02:52:02.423Z,86.00
2022-10-15T02:53:06.415Z,85.41
2022-10-15T02:54:10.387Z,85.41
2022-10-15T02:55:14.321Z,86.11
2022-10-15T02:56:18.369Z,86.14
2022-10-15T02:57:22.620Z,86.02
2022-10-15T02:58:26.770Z,85.88
2022-10-15T02:59:30.693Z,85.89
2022-10-15T03:00:34.740Z,86.41
2022-10-15T03:01:39.050Z,86.51
2022-10-15T03:02:42.981Z,86.33
2022-10-15T03:03:46.931Z,86.13
2022-10-15T03:04:50.809Z,86.13
2022-10-15T03:05:54.712Z,85.50
2022-10-15T03:06:58.656Z,85.50
2022-10-15T03:08:02.674Z,85.29
2022-10-15T03:09:06.653Z,85.47
2022-10-15T03:10:12.176Z,85.66
2022-10-15T03:11:16.039Z,86.17
2022-10-15T03:12:19.899Z,86.55
2022-10-15T03:13:25.165Z,86.43
2022-10-15T03:15:34.658Z,86.77
2022-10-15T03:16:40.208Z,86.93
2022-10-15T03:17:44.145Z,86.76
2022-10-15T03:18:48.146Z,86.99
2022-10-15T03:19:52.106Z,87.00
2022-10-15T03:20:57.274Z,86.76
2022-10-15T03:22:01.142Z,87.01
2022-10-15T03:23:05.017Z,87.01
2022-10-15T03:24:10.501Z,87.19
2022-10-15T03:25:17.069Z,87.33
2022-10-15T03:26:21.026Z,87.33
2022-10-15T03:27:25.350Z,87.25
2022-10-15T03:28:29.655Z,87.48
2022-10-15T03:29:33.675Z,87.39
2022-10-15T03:30:37.743Z,87.42
2022-10-15T03:31:41.590Z,87.61
2022-10-15T03:32:52.340Z,87.73
2022-10-15T03:33:52.743Z,87.71
2022-10-15T03:34:59.323Z,87.93
2022-10-15T03:36:05.033Z,87.79
2022-10-15T03:37:08.978Z,87.79
2022-10-15T03:38:12.889Z,87.90
2022-10-15T03:39:16.729Z,87.87
2022-10-15T03:40:20.697Z,87.87
2022-10-15T03:41:24.663Z,88.25
2022-10-15T03:42:28.511Z,88.13
2022-10-15T03:43:36.363Z,88.13
2022-10-15T03:44:39.537Z,88.25
2022-10-15T03:45:43.373Z,88.25
2022-10-15T03:46:47.334Z,87.91
2022-10-15T03:47:51.434Z,88.11
2022-10-15T03:48:55.299Z,88.40
2022-10-15T03:50:00.761Z,88.48
2022-10-15T03:51:04.850Z,88.46
2022-10-15T03:52:08.762Z,88.39
2022-10-15T03:53:13.062Z,88.68
2022-10-15T03:54:17.042Z,88.54
2022-10-15T03:55:20.887Z,88.66
2022-10-15T03:56:24.861Z,89.00
2022-10-15T03:57:28.879Z,88.87
2022-10-15T03:58:33.184Z,88.99
2022-10-15T03:59:38.705Z,89.06
2022-10-15T04:00:44.275Z,88.95
2022-10-15T04:01:48.257Z,89.23
2022-10-15T04:02:52.110Z,89.65
2022-10-15T04:03:56.045Z,89.93
2022-10-15T04:04:59.896Z,89.84
2022-10-15T04:06:03.913Z,89.77
2022-10-15T04:07:08.805Z,89.63
2022-10-15T04:08:27.435Z,89.46
2022-10-15T04:09:27.964Z,89.89
2022-10-15T04:10:30.347Z,89.56
2022-10-15T04:11:34.381Z,89.57
2022-10-15T04:12:38.411Z,89.54
2022-10-15T04:13:42.252Z,90.07
2022-10-15T04:14:47.676Z,89.72
2022-10-15T04:15:51.528Z,89.91
2022-10-15T04:16:58.707Z,89.91
2022-10-15T04:18:04.516Z,89.82
2022-10-15T04:19:11.018Z,89.89
2022-10-15T04:20:14.152Z,90.12
2022-10-15T04:21:17.988Z,90.06
2022-10-15T04:22:22.222Z,90.04
2022-10-15T04:23:28.691Z,89.98
2022-10-15T04:24:34.157Z,90.21
2022-10-15T04:25:41.194Z,90.23
2022-10-15T04:26:45.597Z,90.19
2022-10-15T04:27:50.990Z,90.34
2022-10-15T04:28:54.924Z,89.90
2022-10-15T04:29:58.812Z,90.30
2022-10-15T04:31:04.261Z,90.02
2022-10-15T04:32:08.137Z,90.14
2022-10-15T04:33:11.984Z,90.03
2022-10-15T04:34:17.122Z,90.12
2022-10-15T04:35:21.323Z,89.98
2022-10-15T04:36:28.127Z,89.79
2022-10-15T04:37:34.292Z,89.87
2022-10-15T04:38:39.910Z,90.16
2022-10-15T04:39:43.886Z,89.80
2022-10-15T04:40:49.432Z,90.14
2022-10-15T04:41:53.449Z,90.11
2022-10-15T04:42:57.320Z,90.05
2022-10-15T04:44:01.318Z,89.78
2022-10-15T04:45:07.146Z,89.91
2022-10-15T04:46:12.831Z,89.54
2022-10-15T04:47:18.061Z,89.38
2022-10-15T04:48:22.020Z,89.14
2022-10-15T04:49:25.878Z,88.97
2022-10-15T04:50:29.840Z,88.77
2022-10-15T04:51:33.758Z,88.81
2022-10-15T04:52:37.691Z,88.78
2022-10-15T04:53:44.065Z,88.43
2022-10-15T04:54:48.013Z,88.38
2022-10-15T04:55:51.888Z,88.38
2022-10-15T04:56:55.820Z,88.52
2022-10-15T04:57:59.753Z,88.60
2022-10-15T04:59:06.700Z,88.60
2022-10-15T05:00:12.650Z,88.49
2022-10-15T05:01:19.316Z,88.40
2022-10-15T05:02:24.858Z,88.29
2022-10-15T05:03:29.520Z,88.43
2022-10-15T05:04:33.879Z,88.70
2022-10-15T05:05:37.777Z,88.78
2022-10-15T05:06:43.275Z,88.58
2022-10-15T05:07:49.133Z,88.84
2022-10-15T05:08:55.955Z,88.71
2022-10-15T05:09:59.833Z,89.00
2022-10-15T05:11:08.737Z,89.08
2022-10-15T05:12:12.687Z,89.09
2022-10-15T05:13:18.192Z,88.84
2022-10-15T05:14:23.944Z,88.84
2022-10-15T05:15:27.874Z,88.97
2022-10-15T05:16:36.505Z,89.16
2022-10-15T05:17:40.418Z,89.46
2022-10-15T05:18:46.035Z,89.60
2022-10-15T05:19:49.920Z,89.59
2022-10-15T05:20:55.400Z,89.09
2022-10-15T05:21:59.289Z,88.61
2022-10-15T05:23:03.207Z,88.47
2022-10-15T05:24:09.254Z,88.47
2022-10-15T05:25:13.117Z,88.39
2022-10-15T05:26:21.643Z,88.39
2022-10-15T05:27:25.517Z,88.79
2022-10-15T05:28:29.652Z,88.72
2022-10-15T05:29:33.543Z,88.25
2022-10-15T05:30:37.484Z,88.03
2022-10-15T05:31:41.439Z,88.30
2022-10-15T05:32:46.914Z,88.38
2022-10-15T05:33:52.369Z,88.00
2022-10-15T05:35:11.479Z,87.99
2022-10-15T05:36:16.930Z,88.05
2022-10-15T05:37:21.044Z,87.61
2022-10-15T05:38:30.585Z,87.61
2022-10-15T05:39:39.356Z,87.37
2022-10-15T05:40:39.871Z,87.42
2022-10-15T05:41:43.735Z,87.89
2022-10-15T05:42:50.722Z,87.99
2022-10-15T05:43:56.399Z,88.01
2022-10-15T05:45:00.309Z,87.31
2022-10-15T05:46:08.249Z,87.49
2022-10-15T05:47:13.735Z,87.16
2022-10-15T05:48:19.192Z,87.43
2022-10-15T05:49:23.055Z,87.02
2022-10-15T05:50:28.552Z,87.03
2022-10-15T05:51:32.400Z,86.62
2022-10-15T05:52:37.578Z,86.26
2022-10-15T05:53:43.217Z,85.69
2022-10-15T05:54:47.066Z,86.04
2022-10-15T05:55:53.947Z,85.34
2022-10-15T05:57:04.463Z,85.34
2022-10-15T05:58:05.590Z,85.58
2022-10-15T05:59:11.773Z,85.67
2022-10-15T06:00:17.400Z,85.78
2022-10-15T06:01:21.344Z,84.97
2022-10-15T06:02:25.488Z,83.82
2022-10-15T06:03:30.649Z,83.84
2022-10-15T06:04:36.086Z,83.30
2022-10-15T06:05:41.934Z,82.66
2022-10-15T06:06:45.957Z,81.87
2022-10-15T06:07:49.871Z,81.29
2022-10-15T06:08:54.966Z,81.36
2022-10-15T06:09:58.834Z,80.29
2022-10-15T06:11:06.875Z,80.98
2022-10-15T06:12:11.341Z,79.43
2022-10-15T06:13:16.797Z,78.67
2022-10-15T06:14:25.600Z,78.11
2022-10-15T06:15:26.484Z,78.82
2022-10-15T06:16:30.410Z,78.58
2022-10-15T06:17:34.278Z,78.84
2022-10-15T06:18:38.771Z,78.37
2022-10-15T06:19:42.749Z,78.51
2022-10-15T06:20:52.105Z,78.11
2022-10-15T06:21:56.990Z,77.49
2022-10-15T06:23:05.007Z,77.46
2022-10-15T06:25:34.458Z,77.53
2022-10-15T06:26:04.771Z,77.46
2022-10-15T06:26:38.459Z,77.38
2022-10-15T06:27:44.932Z,78.12
2022-10-15T06:30:02.610Z,77.16
2022-10-15T06:31:14.540Z,77.87
2022-10-15T06:32:09.040Z,77.76
2022-10-15T06:32:15.256Z,77.92
2022-10-15T06:33:19.171Z,78.22
2022-10-15T06:34:25.710Z,77.87
2022-10-15T06:35:29.703Z,77.59
2022-10-15T06:36:33.753Z,77.79
2022-10-15T06:37:39.818Z,77.10
2022-10-15T06:38:45.222Z,76.80
2022-10-15T06:39:50.599Z,76.80
2022-10-15T06:40:56.614Z,76.61
2022-10-15T06:42:01.489Z,77.28
2022-10-15T06:43:11.796Z,76.29
2022-10-15T06:44:20.174Z,75.90
2022-10-15T06:45:24.047Z,76.13
2022-10-15T06:46:27.994Z,75.36
2022-10-15T06:47:32.096Z,75.88
2022-10-15T06:48:36.118Z,75.59
2022-10-15T06:49:40.019Z,75.32
2022-10-15T06:50:43.973Z,75.54
2022-10-15T06:51:47.837Z,75.12
2022-10-15T06:52:52.877Z,74.77
2022-10-15T06:54:04.086Z,75.37
2022-10-15T06:55:04.839Z,73.39
2022-10-15T06:56:10.363Z,70.50
2022-10-15T06:57:16.617Z,70.50
2022-10-15T06:58:20.533Z,69.88
2022-10-15T06:59:28.304Z,69.28
2022-10-15T07:01:41.346Z,67.26
2022-10-15T07:02:43.958Z,68.36
2022-10-15T07:04:12.660Z,68.32
2022-10-15T07:12:49.596Z,65.18
2022-10-15T07:13:55.202Z,65.03
2022-10-15T07:14:59.085Z,64.51
2022-10-15T07:16:08.235Z,63.41
2022-10-15T07:17:12.173Z,62.95
2022-10-15T07:18:17.673Z,63.98
2022-10-15T07:19:24.589Z,62.00
2022-10-15T07:20:33.552Z,62.92
2022-10-15T07:21:43.856Z,62.07
2022-10-15T07:23:06.398Z,62.62
2022-10-15T07:24:02.559Z,62.62
2022-10-15T07:25:09.317Z,62.85
2022-10-15T07:26:18.028Z,62.09
2022-10-15T07:28:53.685Z,63.06
2022-10-15T07:31:04.572Z,60.53
2022-10-15T07:32:38.913Z,60.13
2022-10-15T07:33:43.284Z,60.27
2022-10-15T07:34:52.061Z,59.81
2022-10-15T07:35:59.334Z,60.67
2022-10-15T07:37:03.262Z,61.38
2022-10-15T07:39:37.786Z,60.31
2022-10-15T07:40:40.461Z,59.74
2022-10-15T07:41:45.811Z,59.74
2022-10-15T07:44:14.169Z,60.00
2022-10-15T07:46:33.589Z,59.67
2022-10-15T09:22:51.148Z,48.80
2022-10-15T09:24:04.622Z,48.92
2022-10-15T09:25:11.692Z,49.16
2022-10-15T09:26:19.557Z,49.22
2022-10-15T09:27:35.157Z,50.03
2022-10-15T09:29:00.240Z,50.03
2022-10-15T09:30:28.429Z,49.45
2022-10-15T09:33:09.980Z,49.95
2022-10-15T09:34:22.819Z,49.48
2022-10-15T09:35:41.658Z,49.13
2022-10-15T09:36:59.208Z,48.78
2022-10-15T09:38:15.060Z,49.09
2022-10-15T09:39:34.005Z,49.09
2022-10-15T09:40:45.410Z,48.25
2022-10-15T09:41:55.007Z,49.46
2022-10-15T09:44:17.408Z,47.06
2022-10-15T09:47:26.594Z,47.23
2022-10-15T09:48:33.455Z,47.91
2022-10-15T09:49:39.775Z,46.98
2022-10-15T09:50:46.689Z,47.75
2022-10-15T09:52:01.546Z,47.54
2022-10-15T09:53:23.312Z,47.28
2022-10-15T09:55:03.753Z,47.28
2022-10-15T09:56:12.243Z,47.79
2022-10-15T09:57:18.749Z,47.36
2022-10-15T09:58:31.514Z,47.15
2022-10-15T09:59:34.013Z,47.34
2022-10-15T10:00:59.194Z,47.33
2022-10-15T10:02:14.715Z,47.60
2022-10-15T10:03:19.166Z,46.97
2022-10-15T10:04:24.628Z,46.28
2022-10-15T10:05:32.910Z,46.44
2022-10-15T10:06:42.669Z,46.44
2022-10-15T10:08:12.823Z,47.08
2022-10-15T10:10:29.019Z,47.31
2022-10-15T10:38:39.928Z,45.39
2022-10-15T10:39:43.964Z,45.39
2022-10-15T10:40:56.278Z,45.39
2022-10-15T10:42:05.750Z,44.56
2022-10-15T10:43:18.192Z,44.65
2022-10-15T10:44:25.066Z,46.06
2022-10-15T10:45:30.240Z,46.06
2022-10-15T10:46:34.316Z,43.68
2022-10-15T10:47:38.163Z,43.81
2022-10-15T10:51:27.800Z,43.68
2022-10-15T10:52:37.463Z,43.51
2022-10-15T10:54:02.628Z,44.10
2022-10-15T10:55:23.434Z,43.71
2022-10-15T10:56:42.716Z,44.40
2022-10-15T10:57:52.695Z,44.15
2022-10-15T10:59:02.376Z,44.20
2022-10-15T11:00:07.868Z,44.15
2022-10-15T11:01:14.019Z,44.15
2022-10-15T11:02:18.045Z,43.99
2022-10-15T11:03:37.176Z,44.06
2022-10-15T11:04:41.385Z,44.01
2022-10-15T11:05:49.763Z,44.38
2022-10-15T11:07:03.941Z,43.77
2022-10-15T11:08:28.610Z,44.16
2022-10-15T11:09:55.325Z,44.45
2022-10-15T11:11:09.391Z,44.69
2022-10-15T11:12:28.221Z,44.26
2022-10-15T11:13:55.856Z,44.91
2022-10-15T11:15:28.839Z,45.22
2022-10-15T11:16:43.871Z,45.40
2022-10-15T11:18:06.760Z,45.32
2022-10-15T11:19:50.269Z,44.67
2022-10-15T11:20:49.734Z,44.67
2022-10-15T11:21:52.474Z,45.04
2022-10-15T11:23:03.642Z,46.42
2022-10-15T11:24:20.733Z,44.95
2022-10-15T11:25:36.012Z,44.95
2022-10-15T11:27:09.838Z,44.11
2022-10-15T11:28:29.485Z,43.93
2022-10-15T11:29:55.119Z,43.45
2022-10-15T11:31:13.675Z,43.76
2022-10-15T11:33:01.679Z,44.13
2022-10-15T11:33:51.434Z,44.13
2022-10-15T11:35:51.587Z,43.82
2022-10-15T11:37:03.217Z,44.77
2022-10-15T11:38:32.342Z,44.77
2022-10-15T11:40:06.662Z,44.65
2022-10-15T11:41:18.673Z,44.65
2022-10-15T11:42:29.586Z,44.95
2022-10-15T11:43:54.224Z,45.62
2022-10-15T11:45:08.437Z,45.20
2022-10-15T11:46:44.227Z,45.66
2022-10-15T11:48:09.544Z,45.66
2022-10-15T11:49:31.187Z,44.98
2022-10-15T11:50:51.844Z,45.74
2022-10-15T13:49:07.604Z,45.88
2022-10-15T13:52:01.005Z,45.78
2022-10-15T13:53:19.981Z,45.84
2022-10-15T13:56:17.143Z,45.68
2022-10-15T13:57:21.048Z,45.28
2022-10-15T13:58:36.259Z,45.47
2022-10-15T13:59:41.670Z,45.47
2022-10-15T14:01:15.589Z,45.23
2022-10-15T14:02:19.690Z,45.23
2022-10-15T14:03:28.430Z,45.74
2022-10-15T14:04:42.520Z,46.30
2022-10-15T14:05:48.087Z,46.78
2022-10-15T14:06:58.203Z,46.96
2022-10-15T14:08:02.294Z,47.54
2022-10-15T14:09:26.108Z,47.50
2022-10-15T14:10:30.202Z,47.33
2022-10-15T14:11:35.376Z,47.55
2022-10-15T14:12:39.423Z,47.69
2022-10-15T14:13:55.459Z,47.79
2022-10-15T14:15:02.329Z,48.07
2022-10-15T14:16:15.783Z,48.22
2022-10-15T14:17:27.368Z,48.19
2022-10-15T14:18:43.082Z,48.27
2022-10-15T14:20:25.928Z,47.88
2022-10-15T14:21:14.010Z,47.88
2022-10-15T14:22:23.790Z,48.82
2022-10-15T14:23:28.520Z,49.13
2022-10-15T14:24:39.590Z,49.05
2022-10-15T14:25:43.792Z,48.99
2022-10-15T14:26:50.178Z,48.60
2022-10-15T14:27:55.791Z,49.25
2022-10-15T14:29:02.986Z,49.34
2022-10-15T14:30:11.905Z,49.34
2022-10-15T14:31:28.937Z,49.38
2022-10-15T14:32:47.199Z,50.11
2022-10-15T14:33:52.623Z,49.87
2022-10-15T14:34:59.661Z,50.01
2022-10-15T14:36:21.408Z,50.01
2022-10-15T14:37:40.569Z,50.31
2022-10-15T14:38:44.574Z,51.11
2022-10-15T14:39:51.266Z,50.71
2022-10-15T14:41:07.538Z,51.33
2022-10-15T14:42:28.637Z,51.59
2022-10-15T14:43:35.507Z,51.61
2022-10-15T14:44:47.748Z,51.20
2022-10-15T14:45:54.716Z,51.97
2022-10-15T14:47:03.560Z,52.30
2022-10-15T14:48:13.459Z,52.49
2022-10-15T14:49:26.463Z,52.30
2022-10-15T14:50:34.179Z,52.63
2022-10-15T14:51:38.278Z,53.16
2022-10-15T14:52:54.936Z,53.63
2022-10-15T14:54:01.225Z,53.63
2022-10-15T14:55:13.726Z,53.37
2022-10-15T14:56:23.065Z,53.74
2022-10-15T14:57:30.039Z,53.74
2022-10-15T14:58:34.151Z,53.76
2022-10-15T14:59:44.526Z,54.11
2022-10-15T15:00:47.920Z,54.71
2022-10-15T15:02:01.637Z,54.61
2022-10-15T15:03:05.576Z,54.47
2022-10-15T15:04:12.483Z,55.00
2022-10-15T15:05:19.364Z,55.23
2022-10-15T15:06:23.513Z,55.28
2022-10-15T15:07:27.468Z,55.44
2022-10-15T15:08:31.469Z,55.49
2022-10-15T15:09:35.345Z,55.84
2022-10-15T15:10:41.454Z,55.66
2022-10-15T15:11:45.019Z,55.64
2022-10-15T15:12:56.813Z,56.12
2022-10-15T15:14:02.258Z,56.12
2022-10-15T15:15:14.365Z,56.02
2022-10-15T15:16:20.570Z,56.54
2022-10-15T15:17:30.043Z,56.54
2022-10-15T15:18:34.037Z,56.51
2022-10-15T15:19:43.631Z,57.00
2022-10-15T15:20:45.881Z,56.81
2022-10-15T15:21:49.929Z,56.93
2022-10-15T15:24:08.406Z,57.23
2022-10-15T15:25:18.190Z,56.90
2022-10-15T15:26:22.200Z,57.21
2022-10-15T15:27:31.496Z,57.60
2022-10-15T15:28:35.494Z,57.60
2022-10-15T15:29:43.057Z,57.37
2022-10-15T15:30:49.102Z,57.56
2022-10-15T15:31:53.041Z,57.47
2022-10-15T15:32:58.696Z,57.90
2022-10-15T15:34:02.627Z,57.45
2022-10-15T15:35:27.279Z,57.85
2022-10-15T15:36:31.217Z,57.85
2022-10-15T16:14:16.565Z,61.07
2022-10-15T16:38:30.973Z,62.48
2022-10-15T16:41:12.770Z,62.54
2022-10-15T17:08:26.465Z,66.27
2022-10-15T17:14:34.485Z,66.72
2022-10-15T17:29:35.040Z,68.73
2022-10-15T17:31:19.132Z,68.65
2022-10-15T17:31:51.102Z,68.90
2022-10-15T17:35:54.130Z,69.01
2022-10-15T17:38:22.595Z,68.92
2022-10-15T17:39:26.366Z,68.92
2022-10-15T17:40:30.364Z,69.19
2022-10-15T17:41:35.612Z,68.97
2022-10-15T17:42:52.050Z,69.43
2022-10-15T17:43:51.344Z,69.67
2022-10-15T17:44:56.550Z,69.67
2022-10-15T17:46:05.200Z,69.53
2022-10-15T17:47:09.085Z,69.46
2022-10-15T17:48:13.037Z,69.85
2022-10-15T17:49:16.888Z,69.74
2022-10-15T17:50:22.405Z,70.30
2022-10-15T17:51:31.104Z,69.91
2022-10-15T17:52:35.035Z,69.73
2022-10-15T17:53:39.036Z,70.02
2022-10-15T17:54:42.872Z,70.02
2022-10-15T17:55:46.719Z,70.47
2022-10-15T17:56:51.106Z,70.66
2022-10-15T17:58:01.610Z,70.54
2022-10-15T17:59:07.213Z,70.68
2022-10-15T18:02:50.579Z,70.86
2022-10-15T18:03:56.314Z,71.35
2022-10-15T18:05:00.376Z,71.70
2022-10-15T18:06:12.725Z,71.77
2022-10-15T18:07:17.869Z,72.23
2022-10-15T18:08:23.406Z,72.06
2022-10-15T18:09:28.557Z,72.03
2022-10-15T18:10:32.507Z,72.29
2022-10-15T18:11:36.427Z,72.18
2022-10-15T18:12:40.278Z,72.58
2022-10-15T18:13:44.371Z,72.95
2022-10-15T18:14:48.354Z,72.94
2022-10-15T18:15:54.843Z,73.30
2022-10-15T18:16:58.842Z,73.33
2022-10-15T18:18:04.287Z,73.33
2022-10-15T18:19:08.178Z,73.26
2022-10-15T18:20:12.321Z,73.41
2022-10-15T18:21:18.588Z,73.56
2022-10-15T18:22:22.463Z,73.31
2022-10-15T18:23:26.393Z,73.74
2022-10-15T18:24:30.248Z,73.74
2022-10-15T18:25:34.244Z,73.79
2022-10-15T18:26:38.179Z,74.01
2022-10-15T18:27:43.670Z,73.98
2022-10-15T18:28:49.910Z,73.93
2022-10-15T18:29:53.836Z,74.23
2022-10-15T18:30:58.314Z,73.88
2022-10-15T18:32:03.888Z,74.06
2022-10-15T18:33:10.835Z,74.73
2022-10-15T18:34:15.373Z,74.73
2022-10-15T18:35:19.213Z,74.62
2022-10-15T18:36:25.887Z,75.21
2022-10-15T18:37:29.761Z,75.21
2022-10-15T18:38:33.944Z,75.28
2022-10-15T18:39:39.519Z,75.36
2022-10-15T18:40:45.002Z,75.67
2022-10-15T18:41:48.956Z,75.64
2022-10-15T18:42:54.575Z,75.71
2022-10-15T18:44:00.845Z,76.05
2022-10-15T18:45:05.110Z,76.47
2022-10-15T18:46:09.226Z,76.40
2022-10-15T18:47:13.191Z,76.54
2022-10-15T18:48:17.124Z,76.54
2022-10-15T18:49:21.622Z,76.51
2022-10-15T18:50:25.605Z,76.51
2022-10-15T18:51:30.294Z,76.68
2022-10-15T18:52:39.964Z,77.09
2022-10-15T18:53:40.400Z,76.83
2022-10-15T18:54:47.862Z,76.81
2022-10-15T18:55:51.502Z,76.91
2022-10-15T18:56:55.467Z,77.47
2022-10-15T18:57:59.381Z,77.47
2022-10-15T18:59:03.319Z,77.35
2022-10-15T19:00:10.537Z,78.05
2022-10-15T19:01:32.559Z,77.91
2022-10-15T19:02:36.648Z,77.79
2022-10-15T19:03:41.026Z,77.69
2022-10-15T19:04:44.888Z,77.93
2022-10-15T19:05:50.333Z,77.93
2022-10-15T19:06:55.119Z,77.67
2022-10-15T19:07:59.184Z,77.85
2022-10-15T19:09:05.607Z,77.60
2022-10-15T19:10:15.321Z,77.73
2022-10-15T19:11:17.970Z,77.66
2022-10-15T19:12:23.860Z,77.61
2022-10-15T19:13:28.022Z,77.67
2022-10-15T19:14:31.872Z,77.67
2022-10-15T19:15:38.605Z,77.76
2022-10-15T19:16:45.593Z,77.72
2022-10-15T19:17:51.205Z,77.72
2022-10-15T19:18:55.226Z,77.54
2022-10-15T19:19:59.255Z,77.77
2022-10-15T19:21:03.917Z,77.68
2022-10-15T19:22:09.467Z,77.71
2022-10-15T19:23:13.577Z,77.71
2022-10-15T19:24:20.031Z,77.24
2022-10-15T19:25:23.966Z,77.24
2022-10-15T19:26:28.373Z,77.42
2022-10-15T19:27:33.462Z,77.80
2022-10-15T19:28:38.528Z,77.80
2022-10-15T19:29:42.612Z,77.57
2022-10-15T19:30:55.027Z,77.22
2022-10-15T19:31:59.164Z,77.51
2022-10-15T19:33:09.401Z,77.88
2022-10-15T19:34:12.967Z,77.46
2022-10-15T19:35:16.936Z,77.94
2022-10-15T19:36:25.935Z,77.71
2022-10-15T19:37:32.270Z,78.19
2022-10-15T19:38:36.165Z,78.19
2022-10-15T19:39:45.177Z,77.88
2022-10-15T19:40:48.744Z,78.34
2022-10-15T19:41:52.567Z,78.25
2022-10-15T19:43:00.250Z,78.36
2022-10-15T19:44:04.907Z,78.09
2022-10-15T19:46:16.759Z,78.59
2022-10-15T19:47:21.921Z,78.89
2022-10-15T19:48:25.786Z,78.62
2022-10-15T19:49:29.679Z,79.02
2022-10-15T19:50:38.471Z,79.39
2022-10-15T19:51:42.854Z,78.97
2022-10-15T19:52:46.765Z,79.08
2022-10-15T19:53:55.699Z,79.69
2022-10-15T19:54:59.589Z,79.56
2022-10-15T19:56:06.936Z,79.56
2022-10-15T19:57:13.464Z,80.31
2022-10-15T19:58:21.161Z,80.00
2022-10-15T19:59:26.694Z,79.70
2022-10-15T20:00:30.718Z,80.26
2022-10-15T20:01:35.065Z,80.01
2022-10-15T20:02:39.078Z,80.01
2022-10-15T20:04:03.361Z,80.26
2022-10-15T20:06:21.530Z,80.36
2022-10-15T20:07:25.788Z,80.16
2022-10-15T20:08:30.930Z,80.32
2022-10-15T20:09:34.791Z,80.52
2022-10-15T20:10:42.653Z,80.44
2022-10-15T20:11:46.488Z,80.84
2022-10-15T20:12:50.354Z,80.84
2022-10-15T20:13:54.407Z,80.94
2022-10-15T20:14:58.268Z,80.65
2022-10-15T20:16:08.045Z,81.34
2022-10-15T20:17:13.395Z,81.13
2022-10-15T20:18:18.168Z,81.11
2022-10-15T20:19:22.093Z,81.26
2022-10-15T20:20:28.381Z,81.54
2022-10-15T20:21:32.790Z,81.54
2022-10-15T20:22:36.628Z,81.73
2022-10-15T20:23:42.106Z,81.91
2022-10-15T20:24:46.098Z,81.91
2022-10-15T20:25:49.992Z,82.19
2022-10-15T20:26:53.918Z,81.92
2022-10-15T20:27:57.894Z,81.92
2022-10-15T20:29:01.938Z,82.04
2022-10-15T20:30:07.817Z,82.30
2022-10-15T20:45:20.788Z,83.07
2022-10-15T20:46:33.340Z,83.32
2022-10-15T20:47:39.644Z,83.32
2022-10-15T20:48:45.953Z,83.17
2022-10-15T20:49:53.787Z,83.17
2022-10-15T20:50:59.007Z,83.09
2022-10-15T20:52:04.926Z,83.09
2022-10-15T20:53:08.829Z,83.21
2022-10-15T20:54:14.517Z,82.83
2022-10-15T20:55:18.490Z,83.47
2022-10-15T20:56:24.277Z,83.34
2022-10-15T20:57:28.241Z,83.21
2022-10-15T20:58:32.270Z,83.49
2022-10-15T20:59:37.884Z,83.49
2022-10-15T21:00:41.978Z,83.24
2022-10-15T21:01:45.899Z,83.47
2022-10-15T21:02:51.741Z,83.62
2022-10-15T21:03:57.318Z,83.42
2022-10-15T21:05:01.229Z,83.54
2022-10-15T21:06:05.242Z,83.49
2022-10-15T21:07:09.122Z,83.27
2022-10-15T21:08:13.023Z,83.52
2022-10-15T21:09:16.962Z,83.66
2022-10-15T21:10:20.918Z,83.65
2022-10-15T21:11:25.986Z,83.87
2022-10-15T21:12:29.882Z,84.01
2022-10-15T21:13:34.567Z,84.01
2022-10-15T21:14:40.253Z,84.05
2022-10-15T21:15:45.282Z,83.84